Time,TemperatureF,DewpointF,PressureIn,WindDirection,WindDirectionDegrees,WindSpeedMPH,WindSpeedGustMPH,Humidity,HourlyPrecipIn,Conditions,Clouds,dailyrainin,SolarRadiationWatts/m^2,SoftwareType,DateUTC
2013-03-20 00:00:00,32.0,32.0,30.19,WSW,244,1.0,-999.0,100,-99.99,,,-99.99,0.000000,,2013-03-20 05:00:00,
2013-03-20 00:53:00,32.0,32.0,30.19,WSW,244,1.0,-999.0,100,-99.99,,,-99.99,0.000000,,2013-03-20 05:53:00,
2013-03-20 03:00:00,34.0,32.0,30.24,NW,313,3.0,-999.0,92,-99.99,,,-99.99,0.000000,,2013-03-20 08:00:00,
2013-03-20 03:52:00,34.0,32.0,30.24,NW,313,3.0,-999.0,92,-99.99,,,-99.99,0.000000,,2013-03-20 08:52:00,
2013-03-20 04:00:00,32.0,25.0,30.25,NNW,334,6.0,-999.0,77,-99.99,,,-99.99,0.000000,,2013-03-20 09:00:00,
2013-03-20 04:53:00,32.0,25.0,30.25,NNW,334,6.0,-999.0,77,-99.99,,,-99.99,0.000000,,2013-03-20 09:53:00,
2013-03-20 07:00:00,27.0,13.0,30.28,NW,325,6.0,-999.0,54,-99.99,,,-99.99,0.000000,,2013-03-20 12:00:00,
2013-03-20 07:52:00,27.0,13.0,30.28,NW,325,6.0,-999.0,54,-99.99,,,-99.99,0.000000,,2013-03-20 12:52:00,
2013-03-20 08:00:00,26.0,8.0,30.30,NW,323,6.0,-999.0,45,-99.99,,,-99.99,17.980000,,2013-03-20 13:00:00,
2013-03-20 08:53:00,26.0,8.0,30.30,NW,323,6.0,-999.0,45,-99.99,,,-99.99,17.980000,,2013-03-20 13:53:00,
2013-03-20 09:00:00,25.0,10.0,30.34,NW,326,6.0,-999.0,53,-99.99,,,-99.99,170.399994,,2013-03-20 14:00:00,
2013-03-20 09:53:00,25.0,10.0,30.34,NW,326,6.0,-999.0,53,-99.99,,,-99.99,170.399994,,2013-03-20 14:53:00,
2013-03-20 10:00:00,25.0,9.0,30.35,NNW,331,6.0,-999.0,49,-99.99,,,-99.99,341.000000,,2013-03-20 15:00:00,
2013-03-20 10:53:00,25.0,9.0,30.35,NNW,331,6.0,-999.0,49,-99.99,,,-99.99,341.000000,,2013-03-20 15:53:00,
2013-03-20 11:00:00,27.0,8.0,30.35,NW,323,6.0,-999.0,45,-99.99,,,-99.99,496.200012,,2013-03-20 16:00:00,
2013-03-20 11:53:00,27.0,8.0,30.35,NW,323,6.0,-999.0,45,-99.99,,,-99.99,496.200012,,2013-03-20 16:53:00,
2013-03-20 12:00:00,30.0,9.0,30.33,NW,319,5.0,-999.0,42,-99.99,,,-99.99,625.900024,,2013-03-20 17:00:00,
2013-03-20 12:53:00,30.0,9.0,30.33,NW,319,5.0,-999.0,42,-99.99,,,-99.99,625.900024,,2013-03-20 17:53:00,
2013-03-20 13:00:00,30.0,5.0,30.33,NW,314,6.0,-999.0,33,-99.99,,,-99.99,702.000000,,2013-03-20 18:00:00,
2013-03-20 13:53:00,30.0,5.0,30.33,NW,314,6.0,-999.0,33,-99.99,,,-99.99,702.000000,,2013-03-20 18:53:00,
2013-03-20 14:00:00,34.0,8.0,30.30,NW,305,5.0,-999.0,33,-99.99,,,-99.99,722.000000,,2013-03-20 19:00:00,
2013-03-20 16:00:00,36.0,7.0,30.23,WNW,301,5.0,-999.0,29,-99.99,,,-99.99,602.799988,,2013-03-20 21:00:00,
2013-03-20 16:53:00,36.0,7.0,30.23,WNW,301,5.0,-999.0,29,-99.99,,,-99.99,602.799988,,2013-03-20 21:53:00,
2013-03-20 17:00:00,36.0,6.0,30.20,NW,305,5.0,-999.0,28,-99.99,,,-99.99,471.299988,,2013-03-20 22:00:00,
2013-03-20 17:53:00,36.0,6.0,30.20,NW,305,5.0,-999.0,28,-99.99,,,-99.99,471.299988,,2013-03-20 22:53:00,
2013-03-20 18:00:00,35.0,6.0,30.18,NW,313,5.0,-999.0,28,-99.99,,,-99.99,310.399994,,2013-03-20 23:00:00,
2013-03-20 18:53:00,35.0,6.0,30.18,NW,313,5.0,-999.0,28,-99.99,,,-99.99,310.399994,,2013-03-20 23:53:00,
2013-03-20 19:00:00,33.0,6.0,30.16,NNW,329,5.0,-999.0,31,-99.99,,,-99.99,126.400002,,2013-03-21 00:00:00,
2013-03-20 19:52:00,33.0,6.0,30.16,NNW,329,5.0,-999.0,31,-99.99,,,-99.99,126.400002,,2013-03-21 00:52:00,
2013-03-20 20:00:00,30.0,6.0,30.12,North,354,2.0,-999.0,36,-99.99,,,-99.99,4.860000,,2013-03-21 01:00:00,
2013-03-20 20:53:00,30.0,6.0,30.12,North,354,2.0,-999.0,36,-99.99,,,-99.99,4.860000,,2013-03-21 01:53:00,
2013-03-20 21:00:00,25.0,12.0,30.11,SSW,207,1.0,-999.0,56,-99.99,,,-99.99,0.000000,,2013-03-21 02:00:00,
2013-03-20 22:00:00,23.0,15.0,30.11,North,7,0.0,-999.0,69,-99.99,,,-99.99,0.000000,,2013-03-21 03:00:00,
2013-03-20 22:53:00,23.0,15.0,30.11,North,7,0.0,-999.0,69,-99.99,,,-99.99,0.000000,,2013-03-21 03:53:00,
2013-03-20 23:00:00,22.0,15.0,30.10,North,350,0.0,-999.0,74,-99.99,,,-99.99,0.000000,,2013-03-21 04:00:00,
2013-03-20 23:53:00,22.0,15.0,30.10,North,350,0.0,-999.0,74,-99.99,,,-99.99,0.000000,,2013-03-21 04:53:00,